Latest Coastal Weather Observations for Yarram Airport

IDV60701

Issued at 10:32 am EST Thursday 28 May 2020 (issued every 10 minutes, with the page automatically refreshed every 10 minutes)

About coastal observations | Map of coastal stations | Coastal observations for VIC | Marine services | Other Formats
Station Details ID: 085151 Name: YARRAM AIRPORT Lat: -38.56 Lon: 146.75 Height: 17.9 m
Data from the previous 72 hours. | See also: Recent months at Yarram Airport
Date/Time
EST
Wind Sea
Height
m
Swell Vis
km
Cloud Weather Temp
°C
Press
hPa
Rain since
9am
mm
Dir  Spd
kts
Gust
kts
Height
m
Period
s
Dir
28/10:30am WNW 8 12 - - - - - - - 15.0 1021.3 0.0
28/10:00am NW 5 8 - - - - - - - 14.0 1021.2 0.0
28/09:30am NNW 2 4 - - - - - - - 12.8 1021.1 0.0
28/09:00am NNW 3 4 - - - - - - - 11.6 1021.0 0.2
28/08:30am NNE 3 4 - - - - - - - 10.0 1020.8 0.2
28/08:00am CALM 0 5 - - - - - - - 8.5 1020.6 0.2
28/07:30am WNW 5 6 - - - - - - - 8.6 1020.3 0.2
28/07:00am WNW 5 6 - - - - - - - 8.4 1020.0 0.2
28/06:30am WNW 5 7 - - - - - - - 8.7 1019.8 0.2
28/06:00am WNW 5 6 - - - - - - - 8.6 1019.5 0.2
28/05:30am WNW 7 7 - - - - - - - 7.3 1019.4 0.2
28/05:00am WNW 5 6 - - - - - - - 5.1 1019.2 0.2
28/04:30am NW 5 5 - - - - - - - 5.5 1019.0 0.2
28/04:00am NW 5 6 - - - - - - - 5.4 1019.0 0.2
28/03:30am NW 5 7 - - - - - - - 4.8 1019.0 0.2
28/03:00am NW 5 6 - - - - - - - 4.6 1018.9 0.2
28/02:30am CALM 0 0 - - - - - - - 5.4 1019.0 0.2
28/02:00am CALM 0 0 - - - - - - - 5.9 1018.9 0.2
28/01:30am CALM 0 0 - - - - - - - 6.4 1018.7 0.2
28/01:00am NNW 1 5 - - - - - - - 6.2 1018.8 0.2
28/12:30am WNW 4 5 - - - - - - - 8.7 1018.9 0.2
28/12:00am WNW 4 5 - - - - - - - 8.7 1018.8 0.2
 
Date/Time
EST
Wind Sea
Height
m
Swell Vis
km
Cloud Weather Temp
°C
Press
hPa
Rain since
9am
mm
Dir  Spd
kts
Gust
kts
Height
m
Period
s
Dir
27/11:30pm WSW 7 8 - - - - - - - 8.8 1018.7 0.2
27/11:00pm W 5 7 - - - - - - - 8.8 1018.6 0.2
27/10:30pm CALM 0 0 - - - - - - - 9.2 1018.5 0.2
27/10:00pm CALM 0 0 - - - - - - - 9.9 1018.6 0.2
27/09:30pm E 2 4 - - - - - - - 10.2 1018.6 0.2
27/09:00pm NNE 3 4 - - - - - - - 11.5 1018.8 0.2
27/08:30pm CALM 0 0 - - - - - - - 11.7 1018.8 0.2
27/08:00pm N 2 6 - - - - - - - 12.6 1018.8 0.2
27/07:30pm NW 3 4 - - - - - - - 13.1 1018.9 0.2
27/07:00pm NW 2 7 - - - - - - - 12.6 1018.8 0.2
27/06:30pm NNE 4 5 - - - - - - - 12.6 1018.5 0.2
27/06:00pm N 5 6 - - - - - - - 13.1 1018.2 0.2
27/05:30pm NE 4 5 - - - - - - - 13.5 1018.1 0.2
27/05:00pm ENE 5 7 - - - - - - - 14.9 1018.0 0.2
27/04:30pm ENE 5 6 - - - - - - - 15.7 1017.9 0.2
27/04:00pm E 5 7 - - - - - - - 17.1 1017.9 0.2
27/03:30pm E 5 8 - - - - - - - 17.5 1017.8 0.2
27/03:00pm E 6 9 - - - - - - - 18.1 1017.7 0.0
27/02:30pm E 5 6 - - - - - - - 17.6 1018.0 0.0
27/02:00pm E 3 6 - - - - - - - 18.2 1018.1 0.0
27/01:30pm ENE 4 6 - - - - - - - 18.9 1018.3 0.0
27/01:00pm SE 5 7 - - - - - - - 18.2 1018.8 0.0
27/12:30pm ESE 4 5 - - - - - - - 17.6 1019.1 0.0
27/12:00pm ESE 4 6 - - - - - - - 17.0 1019.5 0.0
27/11:30am ESE 4 6 - - - - - - - 15.8 1020.2 0.0
27/11:00am CALM 0 1 - - - - - - - 14.2 1020.9 0.0
27/10:30am CALM 0 0 - - - - - - - 12.8 1021.3 0.0
27/10:00am CALM 0 4 - - - - - - - 11.0 1021.3 0.0
27/09:30am CALM 0 0 - - - - - - - 9.4 1021.4 0.0
27/09:00am CALM 0 1 - - - - - - - 7.7 1021.5 0.0
27/08:30am CALM 0 0 - - - - - - - 5.9 1021.5 0.0
27/08:00am CALM 0 0 - - - - - - - 4.6 1021.3 0.0
27/07:30am CALM 0 0 - - - - - - - 4.0 1021.3 0.0
27/07:00am CALM 0 0 - - - - - - - 3.5 1021.1 0.0
27/06:30am N 4 5 - - - - - - - 3.2 1021.0 0.0
27/06:00am N 3 5 - - - - - - - 3.0 1020.9 0.0
27/05:30am SW 1 4 - - - - - - - 3.5 1020.9 0.0
27/05:00am S 3 4 - - - - - - - 3.2 1020.7 0.0
27/04:30am NW 5 6 - - - - - - - 3.6 1020.6 0.0
27/04:00am E 4 5 - - - - - - - 4.5 1020.4 0.0
27/03:30am CALM 0 0 - - - - - - - 3.6 1020.9 0.0
27/03:00am CALM 0 0 - - - - - - - 3.8 1021.0 0.0
27/02:30am CALM 0 0 - - - - - - - 4.0 1021.2 0.0
27/02:00am N 2 4 - - - - - - - 5.2 1021.7 0.0
27/01:30am CALM 0 0 - - - - - - - 5.5 1021.8 0.0
27/01:00am NE 1 4 - - - - - - - 5.6 1022.2 0.0
27/12:30am NE 4 4 - - - - - - - 7.1 1022.3 0.0
27/12:00am NE 5 6 - - - - - - - 6.9 1022.5 0.0
 
Date/Time
EST
Wind Sea
Height
m
Swell Vis
km
Cloud Weather Temp
°C
Press
hPa
Rain since
9am
mm
Dir  Spd
kts
Gust
kts
Height
m
Period
s
Dir
26/11:30pm NE 4 5 - - - - - - - 7.5 1022.9 0.0
26/11:00pm NNE 4 5 - - - - - - - 7.6 1023.1 0.0
26/10:30pm NE 6 7 - - - - - - - 8.0 1023.2 0.0
26/10:00pm ENE 6 7 - - - - - - - 6.4 1023.5 0.0
26/09:30pm ENE 3 5 - - - - - - - 5.2 1023.9 0.0
26/09:00pm ENE 4 5 - - - - - - - 6.5 1024.0 0.0
26/08:30pm NE 3 4 - - - - - - - 6.7 1024.0 0.0
26/08:00pm NNE 1 3 - - - - - - - 6.0 1024.0 0.0
26/07:30pm NE 3 4 - - - - - - - 7.4 1023.9 0.0
26/07:00pm NNE 6 6 - - - - - - - 7.6 1023.7 0.0
26/06:30pm NE 4 5 - - - - - - - 8.4 1023.7 0.0
26/06:00pm NE 5 6 - - - - - - - 10.0 1023.5 0.0
26/05:30pm NE 5 6 - - - - - - - 10.6 1023.3 0.0
26/05:00pm NE 5 7 - - - - - - - 11.1 1023.0 0.0
26/04:30pm ENE 8 11 - - - - - - - 13.3 1022.9 0.0
26/04:00pm NE 10 13 - - - - - - - 14.4 1023.1 0.0
26/03:30pm NE 11 16 - - - - - - - 14.5 1023.1 0.0
26/03:00pm NE 10 16 - - - - - - - 14.4 1023.3 0.0
26/02:30pm ENE 11 17 - - - - - - - 14.6 1023.5 0.0
26/02:00pm ENE 10 16 - - - - - - - 15.3 1023.7 0.0
26/01:30pm NE 11 16 - - - - - - - 14.8 1024.3 0.0
26/01:00pm NE 11 17 - - - - - - - 15.0 1024.4 0.0
26/12:30pm NE 14 17 - - - - - - - 15.1 1024.9 0.0
26/12:00pm NE 12 17 - - - - - - - 14.5 1025.5 0.0
26/11:30am NE 11 15 - - - - - - - 14.0 1026.1 0.0
26/11:00am ENE 9 13 - - - - - - - 14.0 1026.5 0.0
26/10:30am NE 10 14 - - - - - - - 14.3 1027.0 0.0
26/10:00am ENE 8 11 - - - - - - - 13.7 1027.2 0.0
26/09:30am NE 7 10 - - - - - - - 12.3 1027.5 0.0
26/09:00am NNE 5 7 - - - - - - - 10.5 1027.5 0.0
26/08:30am NE 4 6 - - - - - - - 9.8 1027.2 0.0
26/08:00am NE 3 5 - - - - - - - 8.4 1027.3 0.0
26/07:30am ENE 5 5 - - - - - - - 7.9 1027.1 0.0
26/07:00am ENE 3 4 - - - - - - - 7.6 1027.0 0.0
26/06:30am NE 5 6 - - - - - - - 8.9 1026.6 0.0
26/06:00am N 6 8 - - - - - - - 9.5 1026.5 0.0
26/05:30am ENE 7 11 - - - - - - - 10.7 1026.3 0.0
26/05:00am ENE 5 7 - - - - - - - 10.5 1026.3 0.0
26/04:30am ENE 5 6 - - - - - - - 10.3 1026.1 0.0
26/04:00am NE 4 6 - - - - - - - 10.6 1026.3 0.0
26/03:30am NE 5 6 - - - - - - - 10.3 1026.3 0.0
26/03:00am NE 4 5 - - - - - - - 10.3 1026.6 0.0
26/02:30am CALM 0 0 - - - - - - - 9.9 1026.6 0.0
26/02:00am NE 3 4 - - - - - - - 10.1 1026.7 0.0
26/01:30am E 3 4 - - - - - - - 9.8 1026.8 0.0
26/01:00am NE 5 7 - - - - - - - 9.4 1026.8 0.0
26/12:30am NE 6 9 - - - - - - - 11.1 1027.0 0.0
26/12:00am ENE 6 8 - - - - - - - 11.2 1027.1 0.0
 
Date/Time
EST
Wind Sea
Height
m
Swell Vis
km
Cloud Weather Temp
°C
Press
hPa
Rain since
9am
mm
Dir  Spd
kts
Gust
kts
Height
m
Period
s
Dir
25/11:30pm ENE 6 10 - - - - - - - 10.1 1027.2 0.0
25/11:00pm NE 4 7 - - - - - - - 9.4 1027.4 0.0
25/10:30pm NE 4 7 - - - - - - - 8.3 1027.5 0.0
25/10:00pm CALM 0 0 - - - - - - - 9.2 1027.8 0.0
25/09:30pm N 5 6 - - - - - - - 8.9 1027.7 0.0
25/09:00pm NNE 3 4 - - - - - - - 9.0 1027.6 0.0
25/08:30pm NNE 3 4 - - - - - - - 8.7 1027.5 0.0
25/08:00pm NE 3 4 - - - - - - - 9.0 1027.2 0.0
25/07:30pm NE 4 5 - - - - - - - 9.9 1027.1 0.0
25/07:00pm NE 4 7 - - - - - - - 10.0 1027.0 0.0
25/06:30pm E 5 6 - - - - - - - 10.8 1026.8 0.0
25/06:00pm E 5 7 - - - - - - - 11.2 1026.5 0.0
25/05:30pm ESE 6 8 - - - - - - - 11.2 1026.4 0.0
25/05:00pm E 5 6 - - - - - - - 11.1 1026.2 0.0
25/04:30pm ESE 8 11 - - - - - - - 12.2 1026.1 0.0
25/04:00pm E 7 9 - - - - - - - 12.3 1026.0 0.0
25/03:30pm ESE 10 13 - - - - - - - 12.3 1025.8 0.0
25/03:00pm ESE 9 11 - - - - - - - 13.3 1025.8 0.0
25/02:30pm E 10 14 - - - - - - - 12.1 1026.0 0.0
25/02:00pm ESE 9 14 - - - - - - - 13.1 1025.7 0.0
25/01:30pm ESE 8 12 - - - - - - - 11.8 1026.0 0.0
25/01:00pm ESE 11 15 - - - - - - - 14.3 1025.9 0.0
25/12:30pm ESE 10 13 - - - - - - - 13.2 1026.1 0.0
25/12:00pm SE 10 15 - - - - - - - 13.4 1026.6 0.0
25/11:30am SE 11 13 - - - - - - - 13.3 1027.3 0.0
25/11:00am SE 11 14 - - - - - - - 13.8 1027.2 0.0

Other formats

Comma delimited format used in spreadsheet applications
http://www.bom.gov.au/fwo/IDV60701/IDV60701.95890.axf

JavaScript Object Notation format (JSON) in row-major order
http://www.bom.gov.au/fwo/IDV60701/IDV60701.95890.json

Data quality

Most of these data are generated automatically and are frequently updated. Quality checks on data are not normally performed. It is possible for incorrect values to appear. Refer to information at About Latest Weather Observations and please check the disclaimer before using these data.